sensor_id;sensor_type;location;lat;lon;timestamp;P1;durP1;ratioP1;P2;durP2;ratioP2
37753;SDS011;23596;52.520;13.464;2023-04-08T00:00:02;58.70;;;26.33;;
37753;SDS011;23596;52.520;13.464;2023-04-08T00:02:30;57.45;;;25.10;;
37753;SDS011;23596;52.520;13.464;2023-04-08T00:05:05;56.93;;;25.67;;
37753;SDS011;23596;52.520;13.464;2023-04-08T00:07:31;60.20;;;24.67;;
37753;SDS011;23596;52.520;13.464;2023-04-08T00:09:57;54.07;;;24.37;;
37753;SDS011;23596;52.520;13.464;2023-04-08T00:12:22;45.63;;;23.60;;
37753;SDS011;23596;52.520;13.464;2023-04-08T00:14:48;59.40;;;25.13;;
37753;SDS011;23596;52.520;13.464;2023-04-08T00:17:13;65.57;;;27.33;;
37753;SDS011;23596;52.520;13.464;2023-04-08T00:19:39;62.60;;;27.83;;
37753;SDS011;23596;52.520;13.464;2023-04-08T00:22:05;62.37;;;27.33;;
37753;SDS011;23596;52.520;13.464;2023-04-08T00:24:31;65.67;;;30.43;;
37753;SDS011;23596;52.520;13.464;2023-04-08T00:26:56;66.93;;;29.37;;
37753;SDS011;23596;52.520;13.464;2023-04-08T00:29:22;79.73;;;33.10;;
37753;SDS011;23596;52.520;13.464;2023-04-08T00:31:47;78.60;;;31.70;;
37753;SDS011;23596;52.520;13.464;2023-04-08T00:34:13;83.47;;;32.80;;
37753;SDS011;23596;52.520;13.464;2023-04-08T00:36:39;84.40;;;35.37;;
37753;SDS011;23596;52.520;13.464;2023-04-08T00:39:04;85.40;;;34.33;;
37753;SDS011;23596;52.520;13.464;2023-04-08T00:41:32;90.00;;;34.72;;
37753;SDS011;23596;52.520;13.464;2023-04-08T00:43:58;96.65;;;37.50;;
37753;SDS011;23596;52.520;13.464;2023-04-08T00:46:24;95.40;;;34.87;;
37753;SDS011;23596;52.520;13.464;2023-04-08T00:48:50;96.20;;;37.13;;
37753;SDS011;23596;52.520;13.464;2023-04-08T00:51:17;99.40;;;37.57;;
37753;SDS011;23596;52.520;13.464;2023-04-08T00:53:43;85.40;;;36.47;;
37753;SDS011;23596;52.520;13.464;2023-04-08T00:56:08;99.20;;;37.20;;
37753;SDS011;23596;52.520;13.464;2023-04-08T00:58:34;103.82;;;37.90;;
37753;SDS011;23596;52.520;13.464;2023-04-08T01:01:11;108.05;;;37.72;;
37753;SDS011;23596;52.520;13.464;2023-04-08T01:09:01;99.82;;;37.70;;
37753;SDS011;23596;52.520;13.464;2023-04-08T01:11:30;114.35;;;40.25;;
37753;SDS011;23596;52.520;13.464;2023-04-08T01:13:58;105.57;;;39.63;;
37753;SDS011;23596;52.520;13.464;2023-04-08T01:16:30;100.93;;;39.15;;
37753;SDS011;23596;52.520;13.464;2023-04-08T01:18:56;108.85;;;37.58;;
37753;SDS011;23596;52.520;13.464;2023-04-08T01:21:22;113.18;;;39.95;;
37753;SDS011;23596;52.520;13.464;2023-04-08T01:26:37;113.15;;;40.38;;
37753;SDS011;23596;52.520;13.464;2023-04-08T01:29:04;115.75;;;40.80;;
37753;SDS011;23596;52.520;13.464;2023-04-08T01:33:58;107.70;;;39.58;;
37753;SDS011;23596;52.520;13.464;2023-04-08T01:36:25;114.13;;;41.10;;
37753;SDS011;23596;52.520;13.464;2023-04-08T01:38:52;126.45;;;39.63;;
37753;SDS011;23596;52.520;13.464;2023-04-08T01:41:18;107.40;;;40.30;;
37753;SDS011;23596;52.520;13.464;2023-04-08T01:46:11;112.93;;;42.40;;
37753;SDS011;23596;52.520;13.464;2023-04-08T01:48:37;118.60;;;41.50;;
37753;SDS011;23596;52.520;13.464;2023-04-08T01:51:04;106.53;;;40.90;;
37753;SDS011;23596;52.520;13.464;2023-04-08T01:53:30;115.70;;;41.58;;
37753;SDS011;23596;52.520;13.464;2023-04-08T01:55:57;120.03;;;42.60;;
37753;SDS011;23596;52.520;13.464;2023-04-08T01:58:29;122.03;;;42.97;;
37753;SDS011;23596;52.520;13.464;2023-04-08T02:01:00;118.93;;;42.33;;
37753;SDS011;23596;52.520;13.464;2023-04-08T02:03:26;126.23;;;43.50;;
37753;SDS011;23596;52.520;13.464;2023-04-08T02:05:53;118.97;;;45.45;;
37753;SDS011;23596;52.520;13.464;2023-04-08T02:08:19;117.20;;;41.97;;
37753;SDS011;23596;52.520;13.464;2023-04-08T02:10:45;118.33;;;42.50;;
37753;SDS011;23596;52.520;13.464;2023-04-08T02:13:11;117.40;;;44.17;;
37753;SDS011;23596;52.520;13.464;2023-04-08T02:15:37;119.57;;;41.63;;
37753;SDS011;23596;52.520;13.464;2023-04-08T02:18:13;121.35;;;42.30;;
37753;SDS011;23596;52.520;13.464;2023-04-08T02:20:46;122.50;;;43.05;;
37753;SDS011;23596;52.520;13.464;2023-04-08T02:23:19;115.22;;;42.30;;
37753;SDS011;23596;52.520;13.464;2023-04-08T02:25:48;123.15;;;44.45;;
37753;SDS011;23596;52.520;13.464;2023-04-08T02:28:17;123.65;;;43.75;;
37753;SDS011;23596;52.520;13.464;2023-04-08T02:30:50;122.63;;;42.72;;
37753;SDS011;23596;52.520;13.464;2023-04-08T02:33:17;119.72;;;44.15;;
37753;SDS011;23596;52.520;13.464;2023-04-08T02:35:44;132.95;;;44.20;;
37753;SDS011;23596;52.520;13.464;2023-04-08T02:38:13;120.95;;;43.65;;
37753;SDS011;23596;52.520;13.464;2023-04-08T02:40:40;126.10;;;42.53;;
37753;SDS011;23596;52.520;13.464;2023-04-08T02:43:06;120.57;;;43.28;;
37753;SDS011;23596;52.520;13.464;2023-04-08T02:45:32;112.80;;;43.73;;
37753;SDS011;23596;52.520;13.464;2023-04-08T02:48:03;122.88;;;44.10;;
37753;SDS011;23596;52.520;13.464;2023-04-08T02:50:30;127.20;;;43.78;;
37753;SDS011;23596;52.520;13.464;2023-04-08T02:52:55;120.73;;;42.27;;
37753;SDS011;23596;52.520;13.464;2023-04-08T02:55:21;118.63;;;43.13;;
37753;SDS011;23596;52.520;13.464;2023-04-08T02:57:47;110.53;;;43.00;;
37753;SDS011;23596;52.520;13.464;2023-04-08T03:00:13;121.37;;;41.63;;
37753;SDS011;23596;52.520;13.464;2023-04-08T03:02:39;130.57;;;44.78;;
37753;SDS011;23596;52.520;13.464;2023-04-08T03:05:05;140.97;;;43.63;;
37753;SDS011;23596;52.520;13.464;2023-04-08T03:07:32;137.52;;;43.75;;
37753;SDS011;23596;52.520;13.464;2023-04-08T03:09:58;127.28;;;42.95;;
37753;SDS011;23596;52.520;13.464;2023-04-08T03:12:23;131.20;;;45.17;;
37753;SDS011;23596;52.520;13.464;2023-04-08T03:14:51;135.13;;;44.33;;
37753;SDS011;23596;52.520;13.464;2023-04-08T03:17:17;122.47;;;42.70;;
37753;SDS011;23596;52.520;13.464;2023-04-08T03:19:42;137.87;;;43.40;;
37753;SDS011;23596;52.520;13.464;2023-04-08T03:22:08;125.47;;;43.70;;
37753;SDS011;23596;52.520;13.464;2023-04-08T03:24:34;134.40;;;45.23;;
37753;SDS011;23596;52.520;13.464;2023-04-08T03:27:00;131.45;;;45.53;;
37753;SDS011;23596;52.520;13.464;2023-04-08T03:29:26;121.40;;;44.77;;
37753;SDS011;23596;52.520;13.464;2023-04-08T03:31:52;131.47;;;43.90;;
37753;SDS011;23596;52.520;13.464;2023-04-08T03:34:17;127.67;;;45.83;;
37753;SDS011;23596;52.520;13.464;2023-04-08T03:36:43;140.83;;;45.77;;
37753;SDS011;23596;52.520;13.464;2023-04-08T03:39:08;127.03;;;45.63;;
37753;SDS011;23596;52.520;13.464;2023-04-08T03:41:34;143.27;;;47.53;;
37753;SDS011;23596;52.520;13.464;2023-04-08T03:44:00;145.27;;;48.40;;
37753;SDS011;23596;52.520;13.464;2023-04-08T03:46:25;138.70;;;46.97;;
37753;SDS011;23596;52.520;13.464;2023-04-08T03:48:51;138.37;;;46.97;;
37753;SDS011;23596;52.520;13.464;2023-04-08T03:51:17;136.37;;;46.90;;
37753;SDS011;23596;52.520;13.464;2023-04-08T03:53:42;150.43;;;47.93;;
37753;SDS011;23596;52.520;13.464;2023-04-08T03:56:08;161.23;;;50.60;;
37753;SDS011;23596;52.520;13.464;2023-04-08T03:58:33;148.20;;;48.73;;
37753;SDS011;23596;52.520;13.464;2023-04-08T04:00:59;141.67;;;46.93;;
37753;SDS011;23596;52.520;13.464;2023-04-08T04:03:25;138.07;;;45.27;;
37753;SDS011;23596;52.520;13.464;2023-04-08T04:05:51;146.83;;;47.10;;
37753;SDS011;23596;52.520;13.464;2023-04-08T04:08:16;135.40;;;49.13;;
37753;SDS011;23596;52.520;13.464;2023-04-08T04:10:42;147.27;;;48.93;;
37753;SDS011;23596;52.520;13.464;2023-04-08T04:13:08;152.40;;;47.70;;
37753;SDS011;23596;52.520;13.464;2023-04-08T04:15:36;136.47;;;49.47;;
37753;SDS011;23596;52.520;13.464;2023-04-08T04:18:03;153.68;;;51.53;;
37753;SDS011;23596;52.520;13.464;2023-04-08T04:20:29;154.40;;;49.20;;
37753;SDS011;23596;52.520;13.464;2023-04-08T04:22:55;145.00;;;47.73;;
37753;SDS011;23596;52.520;13.464;2023-04-08T04:25:21;150.53;;;50.00;;
37753;SDS011;23596;52.520;13.464;2023-04-08T04:27:47;152.50;;;49.42;;
37753;SDS011;23596;52.520;13.464;2023-04-08T04:30:12;147.00;;;49.93;;
37753;SDS011;23596;52.520;13.464;2023-04-08T04:35:08;140.82;;;47.60;;
37753;SDS011;23596;52.520;13.464;2023-04-08T04:37:34;147.75;;;49.28;;
37753;SDS011;23596;52.520;13.464;2023-04-08T04:40:01;153.53;;;51.77;;
37753;SDS011;23596;52.520;13.464;2023-04-08T04:42:27;145.55;;;48.97;;
37753;SDS011;23596;52.520;13.464;2023-04-08T04:44:52;154.57;;;49.87;;
37753;SDS011;23596;52.520;13.464;2023-04-08T04:47:18;148.57;;;49.87;;
37753;SDS011;23596;52.520;13.464;2023-04-08T04:49:44;156.53;;;50.80;;
37753;SDS011;23596;52.520;13.464;2023-04-08T04:52:10;149.00;;;50.37;;
37753;SDS011;23596;52.520;13.464;2023-04-08T04:54:35;143.90;;;50.40;;
37753;SDS011;23596;52.520;13.464;2023-04-08T04:57:01;128.30;;;49.20;;
37753;SDS011;23596;52.520;13.464;2023-04-08T04:59:27;144.70;;;48.70;;
37753;SDS011;23596;52.520;13.464;2023-04-08T05:01:53;164.50;;;52.00;;
37753;SDS011;23596;52.520;13.464;2023-04-08T05:04:21;146.98;;;50.33;;
37753;SDS011;23596;52.520;13.464;2023-04-08T05:06:47;154.80;;;52.58;;
37753;SDS011;23596;52.520;13.464;2023-04-08T05:09:13;155.70;;;50.93;;
37753;SDS011;23596;52.520;13.464;2023-04-08T05:11:39;150.97;;;51.80;;
37753;SDS011;23596;52.520;13.464;2023-04-08T05:14:05;154.27;;;52.00;;
37753;SDS011;23596;52.520;13.464;2023-04-08T05:16:31;148.63;;;50.60;;
37753;SDS011;23596;52.520;13.464;2023-04-08T05:18:57;140.82;;;50.40;;
37753;SDS011;23596;52.520;13.464;2023-04-08T05:21:23;160.40;;;53.10;;
37753;SDS011;23596;52.520;13.464;2023-04-08T05:23:48;165.10;;;53.67;;
37753;SDS011;23596;52.520;13.464;2023-04-08T05:26:17;176.98;;;56.67;;
37753;SDS011;23596;52.520;13.464;2023-04-08T05:28:43;165.05;;;53.45;;
37753;SDS011;23596;52.520;13.464;2023-04-08T05:31:09;171.43;;;55.93;;
37753;SDS011;23596;52.520;13.464;2023-04-08T05:36:01;159.43;;;52.47;;
37753;SDS011;23596;52.520;13.464;2023-04-08T05:38:26;161.07;;;54.67;;
37753;SDS011;23596;52.520;13.464;2023-04-08T05:40:52;158.53;;;54.00;;
37753;SDS011;23596;52.520;13.464;2023-04-08T05:43:18;149.30;;;54.60;;
37753;SDS011;23596;52.520;13.464;2023-04-08T05:45:43;155.90;;;54.03;;
37753;SDS011;23596;52.520;13.464;2023-04-08T05:48:09;141.90;;;51.70;;
37753;SDS011;23596;52.520;13.464;2023-04-08T05:50:35;167.30;;;54.37;;
37753;SDS011;23596;52.520;13.464;2023-04-08T05:53:00;155.83;;;51.43;;
37753;SDS011;23596;52.520;13.464;2023-04-08T05:55:26;165.43;;;55.40;;
37753;SDS011;23596;52.520;13.464;2023-04-08T05:57:51;155.33;;;54.43;;
37753;SDS011;23596;52.520;13.464;2023-04-08T06:00:17;163.23;;;54.40;;
37753;SDS011;23596;52.520;13.464;2023-04-08T06:02:44;161.57;;;53.85;;
37753;SDS011;23596;52.520;13.464;2023-04-08T06:05:09;163.83;;;53.83;;
37753;SDS011;23596;52.520;13.464;2023-04-08T06:07:35;159.53;;;53.33;;
37753;SDS011;23596;52.520;13.464;2023-04-08T06:10:01;154.90;;;54.43;;
37753;SDS011;23596;52.520;13.464;2023-04-08T06:12:26;157.73;;;54.97;;
37753;SDS011;23596;52.520;13.464;2023-04-08T06:14:53;160.17;;;55.47;;
37753;SDS011;23596;52.520;13.464;2023-04-08T06:17:21;155.25;;;52.85;;
37753;SDS011;23596;52.520;13.464;2023-04-08T06:19:47;155.10;;;52.43;;
37753;SDS011;23596;52.520;13.464;2023-04-08T06:22:12;168.43;;;53.67;;
37753;SDS011;23596;52.520;13.464;2023-04-08T06:24:38;156.60;;;55.47;;
37753;SDS011;23596;52.520;13.464;2023-04-08T06:27:04;166.83;;;54.37;;
37753;SDS011;23596;52.520;13.464;2023-04-08T06:29:30;151.25;;;52.90;;
37753;SDS011;23596;52.520;13.464;2023-04-08T06:31:57;167.75;;;53.97;;
37753;SDS011;23596;52.520;13.464;2023-04-08T06:34:23;157.03;;;55.07;;
37753;SDS011;23596;52.520;13.464;2023-04-08T06:36:48;156.87;;;54.33;;
37753;SDS011;23596;52.520;13.464;2023-04-08T06:39:14;169.33;;;56.43;;
37753;SDS011;23596;52.520;13.464;2023-04-08T06:41:41;166.38;;;55.35;;
37753;SDS011;23596;52.520;13.464;2023-04-08T06:44:07;163.23;;;54.92;;
37753;SDS011;23596;52.520;13.464;2023-04-08T06:46:32;137.07;;;49.00;;
37753;SDS011;23596;52.520;13.464;2023-04-08T06:48:58;160.93;;;54.00;;
37753;SDS011;23596;52.520;13.464;2023-04-08T06:51:24;154.20;;;52.33;;
37753;SDS011;23596;52.520;13.464;2023-04-08T06:53:49;156.83;;;54.13;;
37753;SDS011;23596;52.520;13.464;2023-04-08T06:56:15;146.00;;;51.13;;
37753;SDS011;23596;52.520;13.464;2023-04-08T06:58:41;155.50;;;51.93;;
37753;SDS011;23596;52.520;13.464;2023-04-08T07:01:06;155.87;;;55.10;;
37753;SDS011;23596;52.520;13.464;2023-04-08T07:03:32;163.63;;;54.40;;
37753;SDS011;23596;52.520;13.464;2023-04-08T07:05:57;161.03;;;54.13;;
37753;SDS011;23596;52.520;13.464;2023-04-08T07:08:23;143.87;;;50.77;;
37753;SDS011;23596;52.520;13.464;2023-04-08T07:10:50;143.80;;;49.67;;
37753;SDS011;23596;52.520;13.464;2023-04-08T07:13:16;143.63;;;51.80;;
37753;SDS011;23596;52.520;13.464;2023-04-08T07:15:42;158.97;;;51.83;;
37753;SDS011;23596;52.520;13.464;2023-04-08T07:18:07;156.67;;;51.83;;
37753;SDS011;23596;52.520;13.464;2023-04-08T07:20:33;140.77;;;50.37;;
37753;SDS011;23596;52.520;13.464;2023-04-08T07:23:02;140.10;;;49.83;;
37753;SDS011;23596;52.520;13.464;2023-04-08T07:25:27;147.43;;;51.10;;
37753;SDS011;23596;52.520;13.464;2023-04-08T07:27:53;129.13;;;47.73;;
37753;SDS011;23596;52.520;13.464;2023-04-08T07:30:19;127.87;;;49.80;;
37753;SDS011;23596;52.520;13.464;2023-04-08T07:32:44;148.67;;;49.77;;
37753;SDS011;23596;52.520;13.464;2023-04-08T07:35:10;132.50;;;48.13;;
37753;SDS011;23596;52.520;13.464;2023-04-08T07:37:36;126.53;;;48.03;;
37753;SDS011;23596;52.520;13.464;2023-04-08T07:40:02;126.27;;;46.07;;
37753;SDS011;23596;52.520;13.464;2023-04-08T07:42:28;128.67;;;50.00;;
37753;SDS011;23596;52.520;13.464;2023-04-08T07:44:53;129.53;;;46.30;;
37753;SDS011;23596;52.520;13.464;2023-04-08T07:47:19;126.90;;;49.40;;
37753;SDS011;23596;52.520;13.464;2023-04-08T07:49:45;121.07;;;44.97;;
37753;SDS011;23596;52.520;13.464;2023-04-08T07:52:11;124.53;;;47.97;;
37753;SDS011;23596;52.520;13.464;2023-04-08T07:54:37;114.73;;;45.80;;
37753;SDS011;23596;52.520;13.464;2023-04-08T07:57:03;119.17;;;46.27;;
37753;SDS011;23596;52.520;13.464;2023-04-08T07:59:28;132.07;;;48.07;;
37753;SDS011;23596;52.520;13.464;2023-04-08T08:04:21;127.60;;;46.63;;
37753;SDS011;23596;52.520;13.464;2023-04-08T08:06:49;123.82;;;48.03;;
37753;SDS011;23596;52.520;13.464;2023-04-08T08:09:15;131.60;;;48.37;;
37753;SDS011;23596;52.520;13.464;2023-04-08T08:11:40;115.50;;;47.90;;
37753;SDS011;23596;52.520;13.464;2023-04-08T08:14:06;134.47;;;48.77;;
37753;SDS011;23596;52.520;13.464;2023-04-08T08:16:32;122.80;;;46.33;;
37753;SDS011;23596;52.520;13.464;2023-04-08T08:18:57;124.47;;;45.63;;
37753;SDS011;23596;52.520;13.464;2023-04-08T08:21:23;121.03;;;45.73;;
37753;SDS011;23596;52.520;13.464;2023-04-08T08:23:51;112.95;;;46.08;;
37753;SDS011;23596;52.520;13.464;2023-04-08T08:26:16;124.50;;;46.25;;
37753;SDS011;23596;52.520;13.464;2023-04-08T08:28:42;106.00;;;44.27;;
37753;SDS011;23596;52.520;13.464;2023-04-08T08:31:08;118.57;;;45.87;;
37753;SDS011;23596;52.520;13.464;2023-04-08T08:33:33;116.23;;;46.13;;
37753;SDS011;23596;52.520;13.464;2023-04-08T08:35:59;112.43;;;44.67;;
37753;SDS011;23596;52.520;13.464;2023-04-08T08:38:25;122.63;;;45.33;;
37753;SDS011;23596;52.520;13.464;2023-04-08T08:40:54;109.63;;;41.77;;
37753;SDS011;23596;52.520;13.464;2023-04-08T08:43:23;109.00;;;44.35;;
37753;SDS011;23596;52.520;13.464;2023-04-08T08:45:50;117.60;;;44.53;;
37753;SDS011;23596;52.520;13.464;2023-04-08T08:48:15;103.97;;;42.77;;
37753;SDS011;23596;52.520;13.464;2023-04-08T08:50:41;106.60;;;41.88;;
37753;SDS011;23596;52.520;13.464;2023-04-08T08:53:07;109.30;;;42.17;;
37753;SDS011;23596;52.520;13.464;2023-04-08T08:55:34;113.10;;;44.17;;
37753;SDS011;23596;52.520;13.464;2023-04-08T08:58:00;115.03;;;43.75;;
37753;SDS011;23596;52.520;13.464;2023-04-08T09:00:39;108.20;;;44.78;;
37753;SDS011;23596;52.520;13.464;2023-04-08T09:03:21;106.25;;;44.58;;
37753;SDS011;23596;52.520;13.464;2023-04-08T09:08:36;102.85;;;41.85;;
37753;SDS011;23596;52.520;13.464;2023-04-08T09:11:18;107.18;;;43.55;;
37753;SDS011;23596;52.520;13.464;2023-04-08T09:13:47;102.63;;;43.00;;
37753;SDS011;23596;52.520;13.464;2023-04-08T09:16:14;100.73;;;44.27;;
37753;SDS011;23596;52.520;13.464;2023-04-08T09:18:42;110.18;;;44.28;;
37753;SDS011;23596;52.520;13.464;2023-04-08T09:21:13;108.20;;;43.38;;
37753;SDS011;23596;52.520;13.464;2023-04-08T09:23:43;98.03;;;42.25;;
37753;SDS011;23596;52.520;13.464;2023-04-08T09:28:37;106.97;;;42.83;;
37753;SDS011;23596;52.520;13.464;2023-04-08T09:31:20;99.60;;;41.92;;
37753;SDS011;23596;52.520;13.464;2023-04-08T09:33:51;111.85;;;43.67;;
37753;SDS011;23596;52.520;13.464;2023-04-08T09:36:33;107.43;;;43.00;;
37753;SDS011;23596;52.520;13.464;2023-04-08T09:38:59;103.27;;;42.80;;
37753;SDS011;23596;52.520;13.464;2023-04-08T09:41:24;96.97;;;41.80;;
37753;SDS011;23596;52.520;13.464;2023-04-08T09:43:52;103.00;;;41.80;;
37753;SDS011;23596;52.520;13.464;2023-04-08T09:46:39;104.90;;;42.88;;
37753;SDS011;23596;52.520;13.464;2023-04-08T09:49:18;99.93;;;41.10;;
37753;SDS011;23596;52.520;13.464;2023-04-08T09:52:32;101.43;;;41.67;;
37753;SDS011;23596;52.520;13.464;2023-04-08T09:54:51;93.53;;;41.60;;
37753;SDS011;23596;52.520;13.464;2023-04-08T09:57:29;90.85;;;40.05;;
37753;SDS011;23596;52.520;13.464;2023-04-08T10:00:10;88.47;;;39.28;;
37753;SDS011;23596;52.520;13.464;2023-04-08T10:05:06;87.80;;;39.58;;
37753;SDS011;23596;52.520;13.464;2023-04-08T10:07:33;88.88;;;38.55;;
37753;SDS011;23596;52.520;13.464;2023-04-08T10:09:59;95.63;;;40.65;;
37753;SDS011;23596;52.520;13.464;2023-04-08T10:12:26;87.35;;;38.92;;
37753;SDS011;23596;52.520;13.464;2023-04-08T10:15:37;90.97;;;40.28;;
37753;SDS011;23596;52.520;13.464;2023-04-08T10:17:48;78.35;;;36.45;;
37753;SDS011;23596;52.520;13.464;2023-04-08T10:22:58;84.20;;;37.00;;
37753;SDS011;23596;52.520;13.464;2023-04-08T10:27:55;65.20;;;31.83;;
37753;SDS011;23596;52.520;13.464;2023-04-08T10:32:55;75.05;;;33.00;;
37753;SDS011;23596;52.520;13.464;2023-04-08T10:35:32;69.93;;;31.65;;
37753;SDS011;23596;52.520;13.464;2023-04-08T10:38:00;68.40;;;32.83;;
37753;SDS011;23596;52.520;13.464;2023-04-08T10:40:26;65.15;;;30.25;;
37753;SDS011;23596;52.520;13.464;2023-04-08T10:42:55;67.37;;;32.50;;
37753;SDS011;23596;52.520;13.464;2023-04-08T10:45:22;73.25;;;33.00;;
37753;SDS011;23596;52.520;13.464;2023-04-08T10:47:48;61.00;;;31.13;;
37753;SDS011;23596;52.520;13.464;2023-04-08T10:50:14;64.20;;;28.97;;
37753;SDS011;23596;52.520;13.464;2023-04-08T10:52:45;66.82;;;31.42;;
37753;SDS011;23596;52.520;13.464;2023-04-08T10:55:11;64.10;;;31.15;;
37753;SDS011;23596;52.520;13.464;2023-04-08T10:57:37;62.97;;;32.60;;
37753;SDS011;23596;52.520;13.464;2023-04-08T11:00:05;66.32;;;30.92;;
37753;SDS011;23596;52.520;13.464;2023-04-08T11:02:36;59.38;;;30.45;;
37753;SDS011;23596;52.520;13.464;2023-04-08T11:05:02;61.60;;;29.92;;
37753;SDS011;23596;52.520;13.464;2023-04-08T11:07:28;69.10;;;31.23;;
37753;SDS011;23596;52.520;13.464;2023-04-08T11:09:54;65.27;;;30.63;;
37753;SDS011;23596;52.520;13.464;2023-04-08T11:12:20;67.63;;;31.77;;
37753;SDS011;23596;52.520;13.464;2023-04-08T11:14:46;64.38;;;29.10;;
37753;SDS011;23596;52.520;13.464;2023-04-08T11:17:16;60.42;;;29.27;;
37753;SDS011;23596;52.520;13.464;2023-04-08T11:19:43;56.85;;;27.05;;
37753;SDS011;23596;52.520;13.464;2023-04-08T11:22:11;69.30;;;29.38;;
37753;SDS011;23596;52.520;13.464;2023-04-08T11:24:37;56.08;;;27.45;;
37753;SDS011;23596;52.520;13.464;2023-04-08T11:27:03;57.72;;;27.35;;
37753;SDS011;23596;52.520;13.464;2023-04-08T11:29:32;54.78;;;27.30;;
37753;SDS011;23596;52.520;13.464;2023-04-08T11:31:58;65.90;;;28.83;;
37753;SDS011;23596;52.520;13.464;2023-04-08T11:34:24;52.42;;;26.42;;
37753;SDS011;23596;52.520;13.464;2023-04-08T11:36:50;58.43;;;26.17;;
37753;SDS011;23596;52.520;13.464;2023-04-08T11:39:16;46.55;;;24.83;;
37753;SDS011;23596;52.520;13.464;2023-04-08T11:41:42;42.50;;;21.67;;
37753;SDS011;23596;52.520;13.464;2023-04-08T11:44:08;43.58;;;22.60;;
37753;SDS011;23596;52.520;13.464;2023-04-08T11:46:34;52.50;;;25.70;;
37753;SDS011;23596;52.520;13.464;2023-04-08T11:49:04;47.13;;;24.60;;
37753;SDS011;23596;52.520;13.464;2023-04-08T11:51:31;44.60;;;23.42;;
37753;SDS011;23596;52.520;13.464;2023-04-08T11:53:58;42.33;;;22.98;;
37753;SDS011;23596;52.520;13.464;2023-04-08T11:56:26;47.30;;;24.23;;
37753;SDS011;23596;52.520;13.464;2023-04-08T11:58:54;44.17;;;24.13;;
37753;SDS011;23596;52.520;13.464;2023-04-08T12:01:20;43.90;;;22.27;;
37753;SDS011;23596;52.520;13.464;2023-04-08T12:03:58;44.80;;;25.50;;
37753;SDS011;23596;52.520;13.464;2023-04-08T12:06:25;54.97;;;25.98;;
37753;SDS011;23596;52.520;13.464;2023-04-08T12:08:52;43.58;;;22.40;;
37753;SDS011;23596;52.520;13.464;2023-04-08T12:11:19;48.30;;;24.40;;
37753;SDS011;23596;52.520;13.464;2023-04-08T12:13:44;41.60;;;23.38;;
37753;SDS011;23596;52.520;13.464;2023-04-08T12:16:10;42.87;;;21.73;;
37753;SDS011;23596;52.520;13.464;2023-04-08T12:18:36;39.50;;;20.00;;
37753;SDS011;23596;52.520;13.464;2023-04-08T12:21:02;38.60;;;21.90;;
37753;SDS011;23596;52.520;13.464;2023-04-08T12:23:28;41.23;;;21.70;;
37753;SDS011;23596;52.520;13.464;2023-04-08T12:25:53;39.33;;;20.17;;
37753;SDS011;23596;52.520;13.464;2023-04-08T12:28:19;34.97;;;19.17;;
37753;SDS011;23596;52.520;13.464;2023-04-08T12:30:45;36.40;;;19.58;;
37753;SDS011;23596;52.520;13.464;2023-04-08T12:33:11;29.70;;;17.73;;
37753;SDS011;23596;52.520;13.464;2023-04-08T12:35:37;34.53;;;17.67;;
37753;SDS011;23596;52.520;13.464;2023-04-08T12:38:02;28.13;;;16.67;;
37753;SDS011;23596;52.520;13.464;2023-04-08T12:40:28;28.27;;;15.73;;
37753;SDS011;23596;52.520;13.464;2023-04-08T12:42:54;30.45;;;14.60;;
37753;SDS011;23596;52.520;13.464;2023-04-08T12:45:20;21.70;;;13.38;;
37753;SDS011;23596;52.520;13.464;2023-04-08T12:47:46;23.20;;;12.70;;
37753;SDS011;23596;52.520;13.464;2023-04-08T12:50:12;20.10;;;12.30;;
37753;SDS011;23596;52.520;13.464;2023-04-08T12:55:04;24.23;;;13.45;;
37753;SDS011;23596;52.520;13.464;2023-04-08T12:57:30;25.77;;;15.07;;
37753;SDS011;23596;52.520;13.464;2023-04-08T12:59:56;23.92;;;13.77;;
37753;SDS011;23596;52.520;13.464;2023-04-08T13:02:22;23.65;;;13.23;;
37753;SDS011;23596;52.520;13.464;2023-04-08T13:04:49;21.42;;;13.48;;
37753;SDS011;23596;52.520;13.464;2023-04-08T13:07:17;22.05;;;14.68;;
37753;SDS011;23596;52.520;13.464;2023-04-08T13:09:43;25.00;;;14.00;;
37753;SDS011;23596;52.520;13.464;2023-04-08T13:12:09;25.13;;;14.27;;
37753;SDS011;23596;52.520;13.464;2023-04-08T13:14:36;26.50;;;15.32;;
37753;SDS011;23596;52.520;13.464;2023-04-08T13:17:02;28.23;;;13.93;;
37753;SDS011;23596;52.520;13.464;2023-04-08T13:19:28;27.43;;;16.43;;
37753;SDS011;23596;52.520;13.464;2023-04-08T13:21:53;23.87;;;14.73;;
37753;SDS011;23596;52.520;13.464;2023-04-08T13:24:19;24.13;;;14.70;;
37753;SDS011;23596;52.520;13.464;2023-04-08T13:26:45;21.37;;;13.63;;
37753;SDS011;23596;52.520;13.464;2023-04-08T13:29:10;24.00;;;13.97;;
37753;SDS011;23596;52.520;13.464;2023-04-08T13:31:36;19.57;;;13.20;;
37753;SDS011;23596;52.520;13.464;2023-04-08T13:34:02;21.47;;;13.27;;
37753;SDS011;23596;52.520;13.464;2023-04-08T13:36:27;21.03;;;12.87;;
37753;SDS011;23596;52.520;13.464;2023-04-08T13:38:53;21.83;;;11.93;;
37753;SDS011;23596;52.520;13.464;2023-04-08T13:41:19;19.93;;;12.17;;
37753;SDS011;23596;52.520;13.464;2023-04-08T13:43:45;19.50;;;11.65;;
37753;SDS011;23596;52.520;13.464;2023-04-08T13:46:11;19.67;;;11.33;;
37753;SDS011;23596;52.520;13.464;2023-04-08T13:48:36;20.80;;;12.90;;
37753;SDS011;23596;52.520;13.464;2023-04-08T13:51:02;18.00;;;11.37;;
37753;SDS011;23596;52.520;13.464;2023-04-08T13:53:28;19.93;;;12.13;;
37753;SDS011;23596;52.520;13.464;2023-04-08T13:55:53;17.63;;;11.00;;
37753;SDS011;23596;52.520;13.464;2023-04-08T13:58:20;17.83;;;11.40;;
37753;SDS011;23596;52.520;13.464;2023-04-08T14:00:46;21.17;;;11.93;;
37753;SDS011;23596;52.520;13.464;2023-04-08T14:03:11;19.57;;;11.90;;
37753;SDS011;23596;52.520;13.464;2023-04-08T14:05:37;20.10;;;12.40;;
37753;SDS011;23596;52.520;13.464;2023-04-08T14:08:03;19.83;;;12.57;;
37753;SDS011;23596;52.520;13.464;2023-04-08T14:10:28;17.83;;;12.07;;
37753;SDS011;23596;52.520;13.464;2023-04-08T14:12:54;22.37;;;11.93;;
37753;SDS011;23596;52.520;13.464;2023-04-08T14:15:20;17.33;;;11.37;;
37753;SDS011;23596;52.520;13.464;2023-04-08T14:17:45;23.53;;;13.10;;
37753;SDS011;23596;52.520;13.464;2023-04-08T14:20:11;17.93;;;12.50;;
37753;SDS011;23596;52.520;13.464;2023-04-08T14:22:36;21.33;;;13.47;;
37753;SDS011;23596;52.520;13.464;2023-04-08T14:25:02;21.20;;;13.37;;
37753;SDS011;23596;52.520;13.464;2023-04-08T14:27:28;16.13;;;11.33;;
37753;SDS011;23596;52.520;13.464;2023-04-08T14:29:53;20.23;;;12.30;;
37753;SDS011;23596;52.520;13.464;2023-04-08T14:32:19;19.80;;;11.17;;
37753;SDS011;23596;52.520;13.464;2023-04-08T14:34:45;16.07;;;11.20;;
37753;SDS011;23596;52.520;13.464;2023-04-08T14:37:10;18.47;;;11.73;;